Vitaliy Zinchenko

Chefscout - Rukh
22 Feb 2028
Dienstag
Verarbeitung

Persönlichkeit

Anpassungsfähigkeit (18) Ehrgeiz (18) Kontroverse (19) Loyalität (13) Druck (13) Professionalität (9) Fairness (2) Temperament (2)

Profil

Trainerstil Demokratisch
Lizenz Nationale A
Entschlossenheit 10
Menschenführung 7
Motivation 4
Disziplin 10
Arbeitszufriedenheit
100%
Ermüdung
0%
Rolle Chefscout
Gehalt 45.1K p/W
Vertrag 14.03.2029

Leistung

Verhalten Gut
Trainingseffektivität
40%
Spielerentwicklung
35%
Verletzungsprävention
20%
Taktische Umsetzung
30%

Letzte Ereignisse

Nahm an einer Scouting-Besprechung teil jetzt
Empfahl ein Transferziel jetzt
Nahm an einer Scouting-Besprechung teil 7T her
Empfahl ein Transferziel 7T her
Empfahl ein Transferziel 7T her
Empfahl ein Transferziel 7T her
Empfahl ein Transferziel 14T her
Empfahl ein Transferziel 14T her

Aktuell beobachtet

82
Spieler Verein Status Fähigkeit Vertrauen Beobachtet Zuletzt beobachtet Letzte Stimme
Agustín Módica Gimnasia y Esgrima Aktiv 120 / 113 40% 2 23.01.2028 -
Adama Traoré Bidco United Aktiv 92 / 98 40% 3 23.01.2028 -
Papa Ndiaga Yade Oleksandriya Aktiv 112 / 97 40% 1 23.01.2028 -
Gianluca Pugliese Güemes Aktiv 111 / 101 40% 7 21.01.2028 -
Mohamed Touré Wycombe Wanderers Aktiv 117 / 129 40% 1 21.01.2028 -
Jayden Danns Wigan Athletic Aktiv 151 / 158 40% 1 21.01.2028 -
Ali Youssef Apollon Aktiv 129 / 124 40% 1 19.01.2028 Mehr Infos nötig
Santiago Sala Güemes Aktiv 109 / 121 40% 3 18.01.2028 -
Adalberto Peñaranda Deportivo Tachira Aktiv 124 / 126 40% 2 18.01.2028 -
Haji Wright Chesterfield Aktiv 128 / 148 40% 1 18.01.2028 Mehr Infos nötig
Nahuel Soria Oriental Aktiv 111 / 109 40% 2 14.01.2028 -
Augusto Berrondo Tristán Suárez Aktiv 116 / 100 40% 3 14.01.2028 -
Isaak Davies Newport County Aktiv 108 / 117 40% 2 14.01.2028 -
Tomás Fernández Aldosivi Aktiv 121 / 128 40% 2 13.01.2028 -
Arthur Sales Free State Stars Aktiv 105 / 113 40% 1 13.01.2028 -
Lucas Carrizo Plaza Colonia Aktiv 110 / 106 40% 5 12.01.2028 -
Alasana Yirajang AS Trencin Aktiv 117 / 113 40% 1 12.01.2028 -
Ignacio Yepez Cerrito Aktiv 121 / 109 40% 1 11.01.2028 -
Nicolás Cordero Aldosivi Aktiv 123 / 120 40% 3 10.01.2028 -
Sebastián Cocimano Nueva Chicago Aktiv 111 / 111 40% 1 10.01.2028 -
Lorent Tolaj Plymouth Argyle Aktiv 126 / 114 40% 2 09.01.2028 Mehr Infos nötig
Leandro Suhr Boston River Aktiv 118 / 127 40% 1 09.01.2028 -
Cristhian Medina Dinamo Brest Aktiv 106 / 96 40% 2 07.01.2028 -
Tiziano Dornell Danubio Aktiv 111 / 125 40% 1 07.01.2028 -
Zurab Museliani Dila Aktiv 95 / 85 40% 1 07.01.2028 -
Eric Ramírez Llaneros Aktiv 113 / 105 40% 2 05.01.2028 -
Juan Rocca Gimnasia y Tiro Aktiv 109 / 97 40% 1 05.01.2028 -
Enzo Cabrera Danubio Aktiv 120 / 122 40% 1 05.01.2028 -
Matías Samaniego Talleres Aktiv 106 / 111 40% 1 03.01.2028 -
Luciano Inverso Rentistas Aktiv 118 / 103 40% 1 03.01.2028 -
Agustín Gallo Tristán Suárez Aktiv 117 / 113 40% 2 01.01.2028 -
Rhian Brewster Oxford United Aktiv 141 / 144 40% 1 31.12.2027 -
Ammar Ramadan DAC Dunajska Streda Aktiv 140 / 132 40% 1 30.12.2027 -
Samuel Anakwe Remo Stars Aktiv 95 / 83 40% 2 29.12.2027 -
Luca Martínez Dupuy Godoy Cruz Aktiv 132 / 116 40% 1 29.12.2027 -
Fernando Mimbacas Juventud Aktiv 122 / 111 40% 1 29.12.2027 -
Facundo Batista Penarol Aktiv 111 / 123 40% 2 27.12.2027 -
Luca Franco Arsenal Aktiv 102 / 119 40% 1 27.12.2027 -
Maclyn Biokpo Jenewari Rivers United Aktiv 104 / 92 40% 1 26.12.2027 -
Jonás Acevedo Instituto Aktiv 119 / 125 40% 1 25.12.2027 -
Agustín Occhiato Katsina United Aktiv 90 / 84 40% 2 23.12.2027 -
Chinedu Onyinjekwu Bayelsa United Aktiv 86 / 78 40% 1 23.12.2027 -
Juan Mendoza Güemes Aktiv 104 / 98 40% 2 21.12.2027 -
Adama Goïta Remo Stars Aktiv 98 / 114 40% 1 21.12.2027 -
Chineme Chinonso Ikorodu City Aktiv 103 / 89 40% 1 17.12.2027 -
Alexander Díaz Deportivo Riestra Aktiv 121 / 113 40% 1 16.12.2027 -
Timothy Zechariah Rivers United Aktiv 98 / 117 40% 1 15.12.2027 -
Samson Olasupo Remo Stars Aktiv 107 / 92 40% 1 15.12.2027 -
Alejo Cruz Juventud Aktiv 130 / 121 40% 1 14.12.2027 -
Antony Alonso Deportivo Riestra Aktiv 125 / 116 40% 1 14.12.2027 -
Francisco Bonfiglio Boston River Aktiv 115 / 109 40% 1 13.12.2027 -
Gustavo Viera Cerro Largo Aktiv 113 / 105 40% 1 13.12.2027 -
Sunday Megwo Abia Warriors Aktiv 111 / 83 40% 1 13.12.2027 -
Etiosa Ighodaro Kaizer Chiefs Aktiv 107 / 118 40% 2 12.12.2027 -
Sebastián de Marco Fenix Aktiv 105 / 98 40% 1 12.12.2027 -
Jefry Zapata Danubio Aktiv 123 / 122 40% 1 12.12.2027 -
Brian Palacios Victoriia Sumy Aktiv 77 / 80 30% 1 / 1m 25.08.2027 -
Volodymyr Shvets Livyi Bereh Verloren 80 / 76 65% 1 19.07.2027 Befürworten
Job Ochieng Real Sociedad Aktiv 104 / 129 40% 1 12.07.2027 -
Aaron Collins Milton Keynes Dons Aktiv 134 / 106 40% 1 12.07.2027 -
Oleksii Zhdanovych UCSA Aktiv 79 / 79 65% 1 28.06.2027 Befürworten
Evidence Makgopa Orlando Pirates Aktiv 114 / 119 40% 2 09.02.2027 -
Bismark Asante Ashanti Gold Aktiv 88 / 96 40% 1 09.02.2027 -
Illia Kovalenko Livyi Bereh Aktiv 77 / 84 62% 1 31.01.2027 Befürworten
Fortune Bassey Djoliba Aktiv 104 / 118 40% 1 19.01.2027 -
Tedi Cara LNZ Aktiv 121 / 104 40% 1 15.01.2027 -
Robert Mizo Ashanti Gold Aktiv 92 / 88 40% 1 12.01.2027 -
Isaac Essien WAFA Aktiv 90 / 109 40% 1 11.01.2027 -
Brayan León Mamelodi Sundowns Aktiv 131 / 118 40% 1 10.01.2027 -
Victor Adeboyejo Ismaily Aktiv 102 / 114 40% 1 10.01.2027 -
Danyil Alefirenko Chornomorets Aktiv 108 / 113 40% 1 09.01.2027 -
Milán Tóth Vasas Aktiv 101 / 96 40% 1 08.01.2027 -
Ihor Krasnopir Polissia Aktiv 110 / 121 40% 1 08.01.2027 -
Ruslan Buriak Prykarpattia Aktiv 81 / 81 66% 2 / 2m 06.01.2027 Befürworten
Anton Salabai Kolos Aktiv 107 / 102 40% 1 06.01.2027 -
Leandro Godoy CSKA Sofia Aktiv 124 / 133 40% 1 06.01.2027 -
Kenan Dervišagić Floriana Aktiv 90 / 89 40% 1 05.01.2027 -
Jeriel De Santis Caracas Aktiv 105 / 114 40% 1 07.09.2026 -
Theo Corbeanu Toronto FC Aktiv 108 / 125 40% 1 31.08.2026 -
Kevin Kelsy Portland Timbers Aktiv 110 / 116 40% 1 17.08.2026 -
Jeong Sang-Bin St. Louis CITY SC Aktiv 111 / 116 40% 1 03.08.2026 -
Joaquín Papaleo Gimnasia y Tiro Aktiv 120 / 123 40% 1 01.08.2026 -